sensor_id;sensor_type;location;lat;lon;timestamp;P1;durP1;ratioP1;P2;durP2;ratioP2
20056;SDS011;10189;49.546;7.906;2023-08-06T00:00:22;6.60;;;4.13;;
20056;SDS011;10189;49.546;7.906;2023-08-06T00:02:48;4.57;;;3.60;;
20056;SDS011;10189;49.546;7.906;2023-08-06T00:05:14;3.95;;;3.22;;
20056;SDS011;10189;49.546;7.906;2023-08-06T00:07:49;7.28;;;3.58;;
20056;SDS011;10189;49.546;7.906;2023-08-06T00:10:16;4.72;;;3.45;;
20056;SDS011;10189;49.546;7.906;2023-08-06T00:12:43;5.53;;;3.60;;
20056;SDS011;10189;49.546;7.906;2023-08-06T00:15:09;6.78;;;3.25;;
20056;SDS011;10189;49.546;7.906;2023-08-06T00:17:36;5.70;;;3.60;;
20056;SDS011;10189;49.546;7.906;2023-08-06T00:20:02;5.80;;;3.35;;
20056;SDS011;10189;49.546;7.906;2023-08-06T00:22:34;4.60;;;3.33;;
20056;SDS011;10189;49.546;7.906;2023-08-06T00:25:01;7.00;;;3.35;;
20056;SDS011;10189;49.546;7.906;2023-08-06T00:27:28;3.78;;;3.03;;
20056;SDS011;10189;49.546;7.906;2023-08-06T00:29:54;7.32;;;3.05;;
20056;SDS011;10189;49.546;7.906;2023-08-06T00:32:21;4.97;;;3.30;;
20056;SDS011;10189;49.546;7.906;2023-08-06T00:34:47;4.78;;;3.38;;
20056;SDS011;10189;49.546;7.906;2023-08-06T00:37:17;5.30;;;3.17;;
20056;SDS011;10189;49.546;7.906;2023-08-06T00:39:43;6.88;;;3.10;;
20056;SDS011;10189;49.546;7.906;2023-08-06T00:42:10;5.65;;;3.38;;
20056;SDS011;10189;49.546;7.906;2023-08-06T00:44:37;3.88;;;2.95;;
20056;SDS011;10189;49.546;7.906;2023-08-06T00:47:04;5.50;;;3.17;;
20056;SDS011;10189;49.546;7.906;2023-08-06T00:49:33;5.50;;;3.58;;
20056;SDS011;10189;49.546;7.906;2023-08-06T00:52:01;4.25;;;3.00;;
20056;SDS011;10189;49.546;7.906;2023-08-06T00:54:30;4.00;;;3.10;;
20056;SDS011;10189;49.546;7.906;2023-08-06T00:56:58;4.10;;;2.50;;
20056;SDS011;10189;49.546;7.906;2023-08-06T00:59:26;4.15;;;2.92;;
20056;SDS011;10189;49.546;7.906;2023-08-06T01:01:55;5.70;;;3.15;;
20056;SDS011;10189;49.546;7.906;2023-08-06T01:04:21;4.03;;;2.75;;
20056;SDS011;10189;49.546;7.906;2023-08-06T01:06:49;5.32;;;2.75;;
20056;SDS011;10189;49.546;7.906;2023-08-06T01:12:25;7.70;;;3.08;;
20056;SDS011;10189;49.546;7.906;2023-08-06T01:15:20;3.08;;;2.80;;
20056;SDS011;10189;49.546;7.906;2023-08-06T01:17:53;5.03;;;2.80;;
20056;SDS011;10189;49.546;7.906;2023-08-06T01:20:19;5.22;;;2.97;;
20056;SDS011;10189;49.546;7.906;2023-08-06T01:22:45;3.78;;;2.83;;
20056;SDS011;10189;49.546;7.906;2023-08-06T01:25:12;7.00;;;2.88;;
20056;SDS011;10189;49.546;7.906;2023-08-06T01:27:45;4.70;;;3.17;;
20056;SDS011;10189;49.546;7.906;2023-08-06T01:30:20;7.20;;;2.90;;
20056;SDS011;10189;49.546;7.906;2023-08-06T01:32:48;5.65;;;2.55;;
20056;SDS011;10189;49.546;7.906;2023-08-06T01:35:18;2.97;;;2.30;;
20056;SDS011;10189;49.546;7.906;2023-08-06T01:37:46;5.10;;;2.22;;
20056;SDS011;10189;49.546;7.906;2023-08-06T01:40:13;5.30;;;2.85;;
20056;SDS011;10189;49.546;7.906;2023-08-06T01:42:40;5.72;;;2.47;;
20056;SDS011;10189;49.546;7.906;2023-08-06T01:45:07;4.03;;;2.40;;
20056;SDS011;10189;49.546;7.906;2023-08-06T01:47:34;5.35;;;2.35;;
20056;SDS011;10189;49.546;7.906;2023-08-06T01:50:00;5.43;;;2.30;;
20056;SDS011;10189;49.546;7.906;2023-08-06T01:52:27;4.47;;;1.88;;
20056;SDS011;10189;49.546;7.906;2023-08-06T01:54:53;5.65;;;1.98;;
20056;SDS011;10189;49.546;7.906;2023-08-06T01:57:19;4.05;;;2.20;;
20056;SDS011;10189;49.546;7.906;2023-08-06T01:59:45;5.93;;;2.28;;
20056;SDS011;10189;49.546;7.906;2023-08-06T02:02:11;6.85;;;2.28;;
20056;SDS011;10189;49.546;7.906;2023-08-06T02:04:37;3.92;;;2.03;;
20056;SDS011;10189;49.546;7.906;2023-08-06T02:07:04;4.68;;;1.95;;
20056;SDS011;10189;49.546;7.906;2023-08-06T02:09:30;5.53;;;1.98;;
20056;SDS011;10189;49.546;7.906;2023-08-06T02:11:56;6.00;;;2.13;;
20056;SDS011;10189;49.546;7.906;2023-08-06T02:14:22;3.55;;;1.90;;
20056;SDS011;10189;49.546;7.906;2023-08-06T02:16:48;4.82;;;2.17;;
20056;SDS011;10189;49.546;7.906;2023-08-06T02:19:15;3.50;;;1.67;;
20056;SDS011;10189;49.546;7.906;2023-08-06T02:21:41;4.68;;;1.95;;
20056;SDS011;10189;49.546;7.906;2023-08-06T02:24:06;5.75;;;1.92;;
20056;SDS011;10189;49.546;7.906;2023-08-06T02:26:33;3.70;;;2.10;;
20056;SDS011;10189;49.546;7.906;2023-08-06T02:28:58;4.30;;;2.05;;
20056;SDS011;10189;49.546;7.906;2023-08-06T02:31:24;3.47;;;1.85;;
20056;SDS011;10189;49.546;7.906;2023-08-06T02:33:50;6.68;;;2.60;;
20056;SDS011;10189;49.546;7.906;2023-08-06T02:36:16;2.90;;;1.83;;
20056;SDS011;10189;49.546;7.906;2023-08-06T02:38:42;3.15;;;2.10;;
20056;SDS011;10189;49.546;7.906;2023-08-06T02:41:08;4.75;;;1.95;;
20056;SDS011;10189;49.546;7.906;2023-08-06T02:43:34;3.85;;;2.10;;
20056;SDS011;10189;49.546;7.906;2023-08-06T02:46:00;4.13;;;2.33;;
20056;SDS011;10189;49.546;7.906;2023-08-06T02:48:27;6.32;;;2.40;;
20056;SDS011;10189;49.546;7.906;2023-08-06T02:50:53;4.82;;;2.75;;
20056;SDS011;10189;49.546;7.906;2023-08-06T02:53:28;3.92;;;2.60;;
20056;SDS011;10189;49.546;7.906;2023-08-06T02:55:54;3.70;;;2.50;;
20056;SDS011;10189;49.546;7.906;2023-08-06T02:58:26;3.50;;;2.80;;
20056;SDS011;10189;49.546;7.906;2023-08-06T03:01:04;4.82;;;2.78;;
20056;SDS011;10189;49.546;7.906;2023-08-06T03:03:40;7.70;;;2.95;;
20056;SDS011;10189;49.546;7.906;2023-08-06T03:06:07;6.70;;;3.50;;
20056;SDS011;10189;49.546;7.906;2023-08-06T03:08:40;6.38;;;2.80;;
20056;SDS011;10189;49.546;7.906;2023-08-06T03:11:06;6.53;;;3.35;;
20056;SDS011;10189;49.546;7.906;2023-08-06T03:13:33;5.07;;;3.30;;
20056;SDS011;10189;49.546;7.906;2023-08-06T03:16:00;4.88;;;2.72;;
20056;SDS011;10189;49.546;7.906;2023-08-06T03:18:28;5.47;;;3.08;;
20056;SDS011;10189;49.546;7.906;2023-08-06T03:20:56;4.68;;;2.47;;
20056;SDS011;10189;49.546;7.906;2023-08-06T03:23:25;3.72;;;2.08;;
20056;SDS011;10189;49.546;7.906;2023-08-06T03:25:52;1.95;;;1.60;;
20056;SDS011;10189;49.546;7.906;2023-08-06T03:28:18;3.33;;;1.80;;
20056;SDS011;10189;49.546;7.906;2023-08-06T03:30:45;3.70;;;1.50;;
20056;SDS011;10189;49.546;7.906;2023-08-06T03:33:11;2.28;;;1.35;;
20056;SDS011;10189;49.546;7.906;2023-08-06T03:35:38;3.38;;;1.40;;
20056;SDS011;10189;49.546;7.906;2023-08-06T03:38:04;1.42;;;1.10;;
20056;SDS011;10189;49.546;7.906;2023-08-06T03:40:30;3.65;;;1.17;;
20056;SDS011;10189;49.546;7.906;2023-08-06T03:42:57;3.72;;;1.25;;
20056;SDS011;10189;49.546;7.906;2023-08-06T03:45:23;2.78;;;1.00;;
20056;SDS011;10189;49.546;7.906;2023-08-06T03:47:49;1.67;;;1.00;;
20056;SDS011;10189;49.546;7.906;2023-08-06T03:50:16;2.83;;;0.80;;
20056;SDS011;10189;49.546;7.906;2023-08-06T03:52:42;2.35;;;0.90;;
20056;SDS011;10189;49.546;7.906;2023-08-06T03:55:09;1.02;;;0.80;;
20056;SDS011;10189;49.546;7.906;2023-08-06T03:57:36;3.03;;;0.90;;
20056;SDS011;10189;49.546;7.906;2023-08-06T04:00:02;2.20;;;0.90;;
20056;SDS011;10189;49.546;7.906;2023-08-06T04:02:40;1.13;;;0.57;;
20056;SDS011;10189;49.546;7.906;2023-08-06T04:05:06;3.38;;;0.90;;
20056;SDS011;10189;49.546;7.906;2023-08-06T04:07:33;3.00;;;0.85;;
20056;SDS011;10189;49.546;7.906;2023-08-06T04:10:00;2.60;;;0.77;;
20056;SDS011;10189;49.546;7.906;2023-08-06T04:12:28;4.45;;;1.30;;
20056;SDS011;10189;49.546;7.906;2023-08-06T04:14:57;1.83;;;0.90;;
20056;SDS011;10189;49.546;7.906;2023-08-06T04:17:24;1.77;;;0.73;;
20056;SDS011;10189;49.546;7.906;2023-08-06T04:19:51;1.00;;;0.70;;
20056;SDS011;10189;49.546;7.906;2023-08-06T04:22:20;1.95;;;0.80;;
20056;SDS011;10189;49.546;7.906;2023-08-06T04:24:46;1.67;;;0.88;;
20056;SDS011;10189;49.546;7.906;2023-08-06T04:27:13;2.20;;;0.63;;
20056;SDS011;10189;49.546;7.906;2023-08-06T04:29:41;2.08;;;1.00;;
20056;SDS011;10189;49.546;7.906;2023-08-06T04:32:08;1.02;;;0.60;;
20056;SDS011;10189;49.546;7.906;2023-08-06T04:34:38;0.65;;;0.55;;
20056;SDS011;10189;49.546;7.906;2023-08-06T04:37:04;2.47;;;0.60;;
20056;SDS011;10189;49.546;7.906;2023-08-06T04:39:30;1.58;;;0.70;;
20056;SDS011;10189;49.546;7.906;2023-08-06T04:41:57;1.08;;;0.60;;
20056;SDS011;10189;49.546;7.906;2023-08-06T04:44:23;0.98;;;0.47;;
20056;SDS011;10189;49.546;7.906;2023-08-06T04:46:49;1.02;;;0.43;;
20056;SDS011;10189;49.546;7.906;2023-08-06T04:49:15;1.30;;;0.45;;
20056;SDS011;10189;49.546;7.906;2023-08-06T04:51:42;0.73;;;0.55;;
20056;SDS011;10189;49.546;7.906;2023-08-06T04:54:08;0.55;;;0.40;;
20056;SDS011;10189;49.546;7.906;2023-08-06T04:56:35;1.00;;;0.63;;
20056;SDS011;10189;49.546;7.906;2023-08-06T04:59:00;2.22;;;0.60;;
20056;SDS011;10189;49.546;7.906;2023-08-06T05:01:26;1.65;;;0.52;;
20056;SDS011;10189;49.546;7.906;2023-08-06T05:03:53;0.82;;;0.60;;
20056;SDS011;10189;49.546;7.906;2023-08-06T05:06:19;1.15;;;0.57;;
20056;SDS011;10189;49.546;7.906;2023-08-06T05:08:45;1.58;;;0.60;;
20056;SDS011;10189;49.546;7.906;2023-08-06T05:11:11;2.80;;;0.60;;
20056;SDS011;10189;49.546;7.906;2023-08-06T05:13:36;1.27;;;0.50;;
20056;SDS011;10189;49.546;7.906;2023-08-06T05:16:02;0.98;;;0.80;;
20056;SDS011;10189;49.546;7.906;2023-08-06T05:18:28;0.63;;;0.50;;
20056;SDS011;10189;49.546;7.906;2023-08-06T05:20:55;2.45;;;0.88;;
20056;SDS011;10189;49.546;7.906;2023-08-06T05:23:22;1.17;;;0.70;;
20056;SDS011;10189;49.546;7.906;2023-08-06T05:25:48;1.70;;;0.80;;
20056;SDS011;10189;49.546;7.906;2023-08-06T05:28:13;2.20;;;0.70;;
20056;SDS011;10189;49.546;7.906;2023-08-06T05:30:39;0.82;;;0.65;;
20056;SDS011;10189;49.546;7.906;2023-08-06T05:33:06;1.27;;;0.65;;
20056;SDS011;10189;49.546;7.906;2023-08-06T05:35:32;1.10;;;0.60;;
20056;SDS011;10189;49.546;7.906;2023-08-06T05:37:58;3.05;;;0.70;;
20056;SDS011;10189;49.546;7.906;2023-08-06T05:40:24;0.60;;;0.50;;
20056;SDS011;10189;49.546;7.906;2023-08-06T05:42:51;1.20;;;0.60;;
20056;SDS011;10189;49.546;7.906;2023-08-06T05:45:19;0.90;;;0.60;;
20056;SDS011;10189;49.546;7.906;2023-08-06T05:47:45;1.42;;;0.60;;
20056;SDS011;10189;49.546;7.906;2023-08-06T05:50:13;0.80;;;0.50;;
20056;SDS011;10189;49.546;7.906;2023-08-06T05:52:39;2.08;;;0.60;;
20056;SDS011;10189;49.546;7.906;2023-08-06T05:55:05;1.73;;;0.90;;
20056;SDS011;10189;49.546;7.906;2023-08-06T05:57:31;3.28;;;0.80;;
20056;SDS011;10189;49.546;7.906;2023-08-06T05:59:57;1.10;;;0.60;;
20056;SDS011;10189;49.546;7.906;2023-08-06T06:02:22;1.77;;;0.70;;
20056;SDS011;10189;49.546;7.906;2023-08-06T06:04:48;2.05;;;0.65;;
20056;SDS011;10189;49.546;7.906;2023-08-06T06:07:14;1.30;;;0.65;;
20056;SDS011;10189;49.546;7.906;2023-08-06T06:09:40;1.17;;;0.70;;
20056;SDS011;10189;49.546;7.906;2023-08-06T06:12:06;2.13;;;0.85;;
20056;SDS011;10189;49.546;7.906;2023-08-06T06:14:32;1.00;;;0.60;;
20056;SDS011;10189;49.546;7.906;2023-08-06T06:16:58;3.20;;;0.90;;
20056;SDS011;10189;49.546;7.906;2023-08-06T06:19:27;2.00;;;0.73;;
20056;SDS011;10189;49.546;7.906;2023-08-06T06:21:53;1.10;;;0.82;;
20056;SDS011;10189;49.546;7.906;2023-08-06T06:24:19;1.92;;;0.80;;
20056;SDS011;10189;49.546;7.906;2023-08-06T06:26:45;1.70;;;0.63;;
20056;SDS011;10189;49.546;7.906;2023-08-06T06:29:10;2.35;;;0.77;;
20056;SDS011;10189;49.546;7.906;2023-08-06T06:31:36;0.70;;;0.60;;
20056;SDS011;10189;49.546;7.906;2023-08-06T06:34:02;1.15;;;0.60;;
20056;SDS011;10189;49.546;7.906;2023-08-06T06:36:28;0.77;;;0.57;;
20056;SDS011;10189;49.546;7.906;2023-08-06T06:38:54;1.10;;;0.40;;
20056;SDS011;10189;49.546;7.906;2023-08-06T06:41:19;2.47;;;0.68;;
20056;SDS011;10189;49.546;7.906;2023-08-06T06:43:45;1.17;;;0.70;;
20056;SDS011;10189;49.546;7.906;2023-08-06T06:46:11;0.70;;;0.50;;
20056;SDS011;10189;49.546;7.906;2023-08-06T06:48:37;1.08;;;0.43;;
20056;SDS011;10189;49.546;7.906;2023-08-06T06:51:03;0.30;;;0.30;;
20056;SDS011;10189;49.546;7.906;2023-08-06T06:53:29;2.53;;;0.52;;
20056;SDS011;10189;49.546;7.906;2023-08-06T06:55:56;0.77;;;0.50;;
20056;SDS011;10189;49.546;7.906;2023-08-06T06:58:28;0.60;;;0.50;;
20056;SDS011;10189;49.546;7.906;2023-08-06T07:00:54;0.63;;;0.40;;
20056;SDS011;10189;49.546;7.906;2023-08-06T07:03:20;0.55;;;0.30;;
20056;SDS011;10189;49.546;7.906;2023-08-06T07:05:46;1.65;;;0.40;;
20056;SDS011;10189;49.546;7.906;2023-08-06T07:08:12;0.30;;;0.30;;
20056;SDS011;10189;49.546;7.906;2023-08-06T07:10:40;1.30;;;0.40;;
20056;SDS011;10189;49.546;7.906;2023-08-06T07:13:06;1.10;;;0.35;;
20056;SDS011;10189;49.546;7.906;2023-08-06T07:15:33;0.75;;;0.40;;
20056;SDS011;10189;49.546;7.906;2023-08-06T07:17:58;0.50;;;0.50;;
20056;SDS011;10189;49.546;7.906;2023-08-06T07:20:24;0.50;;;0.50;;
20056;SDS011;10189;49.546;7.906;2023-08-06T07:22:50;0.80;;;0.80;;
20056;SDS011;10189;49.546;7.906;2023-08-06T07:25:16;1.23;;;0.82;;
20056;SDS011;10189;49.546;7.906;2023-08-06T07:27:42;0.90;;;0.80;;
20056;SDS011;10189;49.546;7.906;2023-08-06T07:30:08;1.23;;;0.85;;
20056;SDS011;10189;49.546;7.906;2023-08-06T07:32:35;1.20;;;1.10;;
20056;SDS011;10189;49.546;7.906;2023-08-06T07:35:01;1.05;;;0.90;;
20056;SDS011;10189;49.546;7.906;2023-08-06T07:37:27;1.10;;;0.90;;
20056;SDS011;10189;49.546;7.906;2023-08-06T07:39:54;1.58;;;1.08;;
20056;SDS011;10189;49.546;7.906;2023-08-06T07:42:21;2.05;;;1.33;;
20056;SDS011;10189;49.546;7.906;2023-08-06T07:44:53;2.53;;;1.40;;
20056;SDS011;10189;49.546;7.906;2023-08-06T07:47:21;3.60;;;1.33;;
20056;SDS011;10189;49.546;7.906;2023-08-06T07:49:47;1.40;;;1.15;;
20056;SDS011;10189;49.546;7.906;2023-08-06T07:52:13;1.60;;;1.40;;
20056;SDS011;10189;49.546;7.906;2023-08-06T07:54:39;1.48;;;1.30;;
20056;SDS011;10189;49.546;7.906;2023-08-06T07:57:05;1.40;;;1.30;;
20056;SDS011;10189;49.546;7.906;2023-08-06T07:59:31;2.88;;;1.40;;
20056;SDS011;10189;49.546;7.906;2023-08-06T08:01:57;1.52;;;1.42;;
20056;SDS011;10189;49.546;7.906;2023-08-06T08:04:24;1.40;;;1.23;;
20056;SDS011;10189;49.546;7.906;2023-08-06T08:06:50;2.35;;;1.45;;
20056;SDS011;10189;49.546;7.906;2023-08-06T08:09:16;1.70;;;1.10;;
20056;SDS011;10189;49.546;7.906;2023-08-06T08:11:42;1.83;;;1.00;;
20056;SDS011;10189;49.546;7.906;2023-08-06T08:14:08;1.90;;;1.00;;
20056;SDS011;10189;49.546;7.906;2023-08-06T08:16:34;1.17;;;1.00;;
20056;SDS011;10189;49.546;7.906;2023-08-06T08:19:00;0.90;;;0.70;;
20056;SDS011;10189;49.546;7.906;2023-08-06T08:21:25;2.05;;;0.98;;
20056;SDS011;10189;49.546;7.906;2023-08-06T08:23:51;1.17;;;0.90;;
20056;SDS011;10189;49.546;7.906;2023-08-06T08:26:17;1.05;;;0.70;;
20056;SDS011;10189;49.546;7.906;2023-08-06T08:28:43;1.13;;;0.63;;
20056;SDS011;10189;49.546;7.906;2023-08-06T08:31:10;0.60;;;0.57;;
20056;SDS011;10189;49.546;7.906;2023-08-06T08:33:40;0.70;;;0.60;;
20056;SDS011;10189;49.546;7.906;2023-08-06T08:36:05;0.52;;;0.50;;
20056;SDS011;10189;49.546;7.906;2023-08-06T08:38:31;1.20;;;0.55;;
20056;SDS011;10189;49.546;7.906;2023-08-06T08:40:57;1.25;;;0.52;;
20056;SDS011;10189;49.546;7.906;2023-08-06T08:43:23;3.38;;;0.60;;
20056;SDS011;10189;49.546;7.906;2023-08-06T08:45:49;1.40;;;0.68;;
20056;SDS011;10189;49.546;7.906;2023-08-06T08:48:17;0.75;;;0.40;;
20056;SDS011;10189;49.546;7.906;2023-08-06T08:50:45;0.57;;;0.50;;
20056;SDS011;10189;49.546;7.906;2023-08-06T08:53:14;0.35;;;0.35;;
20056;SDS011;10189;49.546;7.906;2023-08-06T08:55:41;1.33;;;1.02;;
20056;SDS011;10189;49.546;7.906;2023-08-06T08:58:13;0.22;;;0.22;;
20056;SDS011;10189;49.546;7.906;2023-08-06T09:00:43;0.55;;;0.45;;
20056;SDS011;10189;49.546;7.906;2023-08-06T09:03:13;0.50;;;0.50;;
20056;SDS011;10189;49.546;7.906;2023-08-06T09:05:42;0.50;;;0.47;;
20056;SDS011;10189;49.546;7.906;2023-08-06T09:08:11;0.43;;;0.40;;
20056;SDS011;10189;49.546;7.906;2023-08-06T09:10:43;0.30;;;0.30;;
20056;SDS011;10189;49.546;7.906;2023-08-06T09:13:09;0.60;;;0.47;;
20056;SDS011;10189;49.546;7.906;2023-08-06T09:15:37;0.50;;;0.40;;
20056;SDS011;10189;49.546;7.906;2023-08-06T09:18:09;0.40;;;0.40;;
20056;SDS011;10189;49.546;7.906;2023-08-06T09:20:37;1.15;;;0.40;;
20056;SDS011;10189;49.546;7.906;2023-08-06T09:23:09;0.30;;;0.30;;
20056;SDS011;10189;49.546;7.906;2023-08-06T09:25:38;0.63;;;0.32;;
20056;SDS011;10189;49.546;7.906;2023-08-06T09:28:07;1.40;;;0.22;;
20056;SDS011;10189;49.546;7.906;2023-08-06T09:30:35;0.45;;;0.45;;
20056;SDS011;10189;49.546;7.906;2023-08-06T09:33:02;0.22;;;0.20;;
20056;SDS011;10189;49.546;7.906;2023-08-06T09:35:29;0.40;;;0.40;;
20056;SDS011;10189;49.546;7.906;2023-08-06T09:38:06;0.40;;;0.40;;
20056;SDS011;10189;49.546;7.906;2023-08-06T09:40:34;0.20;;;0.20;;
20056;SDS011;10189;49.546;7.906;2023-08-06T09:43:00;0.40;;;0.40;;
20056;SDS011;10189;49.546;7.906;2023-08-06T09:45:28;1.85;;;0.40;;
20056;SDS011;10189;49.546;7.906;2023-08-06T09:48:03;0.35;;;0.30;;
20056;SDS011;10189;49.546;7.906;2023-08-06T09:50:31;0.57;;;0.38;;
20056;SDS011;10189;49.546;7.906;2023-08-06T09:53:01;0.30;;;0.30;;
20056;SDS011;10189;49.546;7.906;2023-08-06T09:55:32;0.30;;;0.30;;
20056;SDS011;10189;49.546;7.906;2023-08-06T09:57:58;0.43;;;0.40;;
20056;SDS011;10189;49.546;7.906;2023-08-06T10:00:25;0.75;;;0.50;;
20056;SDS011;10189;49.546;7.906;2023-08-06T10:02:53;0.40;;;0.40;;
20056;SDS011;10189;49.546;7.906;2023-08-06T10:05:21;0.30;;;0.30;;
20056;SDS011;10189;49.546;7.906;2023-08-06T10:07:49;0.50;;;0.50;;
20056;SDS011;10189;49.546;7.906;2023-08-06T10:10:18;1.17;;;0.38;;
20056;SDS011;10189;49.546;7.906;2023-08-06T10:12:48;1.30;;;0.35;;
20056;SDS011;10189;49.546;7.906;2023-08-06T10:15:24;1.30;;;0.50;;
20056;SDS011;10189;49.546;7.906;2023-08-06T10:17:54;0.73;;;0.40;;
20056;SDS011;10189;49.546;7.906;2023-08-06T10:20:24;0.50;;;0.43;;
20056;SDS011;10189;49.546;7.906;2023-08-06T10:23:03;0.47;;;0.47;;
20056;SDS011;10189;49.546;7.906;2023-08-06T10:25:35;0.40;;;0.40;;
20056;SDS011;10189;49.546;7.906;2023-08-06T10:28:09;1.65;;;0.50;;
20056;SDS011;10189;49.546;7.906;2023-08-06T10:30:45;0.68;;;0.45;;
20056;SDS011;10189;49.546;7.906;2023-08-06T10:33:12;0.55;;;0.45;;
20056;SDS011;10189;49.546;7.906;2023-08-06T10:35:41;0.50;;;0.47;;
20056;SDS011;10189;49.546;7.906;2023-08-06T10:38:16;0.68;;;0.50;;
20056;SDS011;10189;49.546;7.906;2023-08-06T10:43:28;1.17;;;0.60;;
20056;SDS011;10189;49.546;7.906;2023-08-06T10:45:54;0.65;;;0.60;;
20056;SDS011;10189;49.546;7.906;2023-08-06T10:48:56;0.40;;;0.40;;
20056;SDS011;10189;49.546;7.906;2023-08-06T10:51:15;0.70;;;0.43;;
20056;SDS011;10189;49.546;7.906;2023-08-06T10:53:42;0.50;;;0.50;;
20056;SDS011;10189;49.546;7.906;2023-08-06T10:56:17;1.20;;;0.50;;
20056;SDS011;10189;49.546;7.906;2023-08-06T10:58:48;1.38;;;0.43;;
20056;SDS011;10189;49.546;7.906;2023-08-06T11:01:16;0.82;;;0.40;;
20056;SDS011;10189;49.546;7.906;2023-08-06T11:03:43;0.70;;;0.70;;
20056;SDS011;10189;49.546;7.906;2023-08-06T11:06:16;0.60;;;0.40;;
20056;SDS011;10189;49.546;7.906;2023-08-06T11:08:48;1.42;;;0.68;;
20056;SDS011;10189;49.546;7.906;2023-08-06T11:11:18;1.30;;;0.50;;
20056;SDS011;10189;49.546;7.906;2023-08-06T11:13:48;0.75;;;0.65;;
20056;SDS011;10189;49.546;7.906;2023-08-06T11:16:20;0.90;;;0.80;;
20056;SDS011;10189;49.546;7.906;2023-08-06T11:18:49;1.27;;;1.00;;
20056;SDS011;10189;49.546;7.906;2023-08-06T11:21:19;1.25;;;0.80;;
20056;SDS011;10189;49.546;7.906;2023-08-06T11:23:46;1.77;;;0.80;;
20056;SDS011;10189;49.546;7.906;2023-08-06T11:26:12;0.90;;;0.80;;
20056;SDS011;10189;49.546;7.906;2023-08-06T11:28:44;1.00;;;0.90;;
20056;SDS011;10189;49.546;7.906;2023-08-06T11:31:18;1.80;;;1.27;;
20056;SDS011;10189;49.546;7.906;2023-08-06T11:33:51;1.25;;;0.90;;
20056;SDS011;10189;49.546;7.906;2023-08-06T11:36:31;1.80;;;1.17;;
20056;SDS011;10189;49.546;7.906;2023-08-06T11:39:03;1.45;;;1.17;;
20056;SDS011;10189;49.546;7.906;2023-08-06T11:41:30;1.45;;;0.93;;
20056;SDS011;10189;49.546;7.906;2023-08-06T11:44:03;2.22;;;0.90;;
20056;SDS011;10189;49.546;7.906;2023-08-06T11:46:29;2.15;;;0.98;;
20056;SDS011;10189;49.546;7.906;2023-08-06T11:49:14;2.88;;;1.10;;
20056;SDS011;10189;49.546;7.906;2023-08-06T11:51:40;1.42;;;1.05;;
20056;SDS011;10189;49.546;7.906;2023-08-06T11:54:06;1.75;;;0.93;;
20056;SDS011;10189;49.546;7.906;2023-08-06T11:56:33;1.58;;;1.17;;
20056;SDS011;10189;49.546;7.906;2023-08-06T11:59:00;2.00;;;0.90;;
20056;SDS011;10189;49.546;7.906;2023-08-06T12:01:26;1.90;;;0.93;;
20056;SDS011;10189;49.546;7.906;2023-08-06T12:03:58;2.67;;;1.35;;
20056;SDS011;10189;49.546;7.906;2023-08-06T12:06:27;0.95;;;0.88;;
20056;SDS011;10189;49.546;7.906;2023-08-06T12:08:53;1.52;;;0.90;;
20056;SDS011;10189;49.546;7.906;2023-08-06T12:11:20;2.22;;;1.30;;
20056;SDS011;10189;49.546;7.906;2023-08-06T12:13:50;1.98;;;0.93;;
20056;SDS011;10189;49.546;7.906;2023-08-06T12:16:17;1.30;;;1.00;;
20056;SDS011;10189;49.546;7.906;2023-08-06T12:18:44;2.10;;;1.00;;
20056;SDS011;10189;49.546;7.906;2023-08-06T12:21:10;2.13;;;0.80;;
20056;SDS011;10189;49.546;7.906;2023-08-06T12:23:36;1.10;;;0.70;;
20056;SDS011;10189;49.546;7.906;2023-08-06T12:26:02;1.67;;;0.75;;
20056;SDS011;10189;49.546;7.906;2023-08-06T12:28:28;1.92;;;1.00;;
20056;SDS011;10189;49.546;7.906;2023-08-06T12:30:54;1.25;;;0.80;;
20056;SDS011;10189;49.546;7.906;2023-08-06T12:33:20;1.00;;;0.68;;
20056;SDS011;10189;49.546;7.906;2023-08-06T12:35:46;1.73;;;0.90;;
20056;SDS011;10189;49.546;7.906;2023-08-06T12:38:12;2.08;;;0.90;;
20056;SDS011;10189;49.546;7.906;2023-08-06T12:40:38;0.68;;;0.60;;
20056;SDS011;10189;49.546;7.906;2023-08-06T12:43:04;0.98;;;0.80;;
20056;SDS011;10189;49.546;7.906;2023-08-06T12:45:30;2.03;;;0.80;;
20056;SDS011;10189;49.546;7.906;2023-08-06T12:47:56;1.02;;;0.80;;
20056;SDS011;10189;49.546;7.906;2023-08-06T12:50:22;2.55;;;0.90;;
20056;SDS011;10189;49.546;7.906;2023-08-06T12:52:48;0.77;;;0.60;;
20056;SDS011;10189;49.546;7.906;2023-08-06T12:55:13;1.70;;;0.90;;
20056;SDS011;10189;49.546;7.906;2023-08-06T12:57:39;0.70;;;0.70;;
20056;SDS011;10189;49.546;7.906;2023-08-06T13:00:05;1.30;;;0.68;;
20056;SDS011;10189;49.546;7.906;2023-08-06T13:02:32;0.93;;;0.70;;
20056;SDS011;10189;49.546;7.906;2023-08-06T13:04:58;2.00;;;0.90;;
20056;SDS011;10189;49.546;7.906;2023-08-06T13:07:24;0.95;;;0.70;;
20056;SDS011;10189;49.546;7.906;2023-08-06T13:09:50;1.10;;;0.70;;
20056;SDS011;10189;49.546;7.906;2023-08-06T13:12:16;1.35;;;0.68;;
20056;SDS011;10189;49.546;7.906;2023-08-06T13:14:45;2.55;;;0.70;;
20056;SDS011;10189;49.546;7.906;2023-08-06T13:17:11;0.77;;;0.60;;
20056;SDS011;10189;49.546;7.906;2023-08-06T13:19:37;0.50;;;0.50;;
20056;SDS011;10189;49.546;7.906;2023-08-06T13:22:03;1.95;;;0.90;;
20056;SDS011;10189;49.546;7.906;2023-08-06T13:24:31;1.58;;;0.60;;
20056;SDS011;10189;49.546;7.906;2023-08-06T13:26:57;1.70;;;0.90;;
20056;SDS011;10189;49.546;7.906;2023-08-06T13:29:24;1.13;;;0.90;;
20056;SDS011;10189;49.546;7.906;2023-08-06T13:31:52;1.17;;;0.68;;
20056;SDS011;10189;49.546;7.906;2023-08-06T13:34:18;4.00;;;0.95;;
20056;SDS011;10189;49.546;7.906;2023-08-06T13:36:44;2.35;;;0.80;;
20056;SDS011;10189;49.546;7.906;2023-08-06T13:39:10;1.38;;;0.90;;
20056;SDS011;10189;49.546;7.906;2023-08-06T13:41:37;2.42;;;0.95;;
20056;SDS011;10189;49.546;7.906;2023-08-06T13:44:04;2.42;;;1.20;;
20056;SDS011;10189;49.546;7.906;2023-08-06T13:46:30;2.17;;;1.00;;
20056;SDS011;10189;49.546;7.906;2023-08-06T13:48:56;2.33;;;1.10;;
20056;SDS011;10189;49.546;7.906;2023-08-06T13:51:22;3.22;;;1.40;;
20056;SDS011;10189;49.546;7.906;2023-08-06T13:53:48;2.53;;;1.08;;
20056;SDS011;10189;49.546;7.906;2023-08-06T13:56:13;1.20;;;0.90;;
20056;SDS011;10189;49.546;7.906;2023-08-06T13:58:43;2.58;;;1.17;;
20056;SDS011;10189;49.546;7.906;2023-08-06T14:01:12;1.30;;;0.93;;
20056;SDS011;10189;49.546;7.906;2023-08-06T14:03:38;2.35;;;1.10;;
20056;SDS011;10189;49.546;7.906;2023-08-06T14:06:04;3.25;;;1.00;;
20056;SDS011;10189;49.546;7.906;2023-08-06T14:08:30;2.00;;;1.10;;
20056;SDS011;10189;49.546;7.906;2023-08-06T14:10:56;2.90;;;1.23;;
20056;SDS011;10189;49.546;7.906;2023-08-06T14:13:22;1.15;;;0.88;;
20056;SDS011;10189;49.546;7.906;2023-08-06T14:15:48;1.58;;;0.90;;
20056;SDS011;10189;49.546;7.906;2023-08-06T14:18:14;2.40;;;1.00;;
20056;SDS011;10189;49.546;7.906;2023-08-06T14:20:41;0.98;;;0.75;;
20056;SDS011;10189;49.546;7.906;2023-08-06T14:23:08;1.60;;;0.82;;
20056;SDS011;10189;49.546;7.906;2023-08-06T14:25:34;1.58;;;0.80;;
20056;SDS011;10189;49.546;7.906;2023-08-06T14:28:00;1.25;;;0.70;;
20056;SDS011;10189;49.546;7.906;2023-08-06T14:30:26;1.10;;;0.70;;
20056;SDS011;10189;49.546;7.906;2023-08-06T14:32:52;2.72;;;0.80;;
20056;SDS011;10189;49.546;7.906;2023-08-06T14:35:18;0.85;;;0.70;;
20056;SDS011;10189;49.546;7.906;2023-08-06T14:37:44;1.10;;;0.80;;
20056;SDS011;10189;49.546;7.906;2023-08-06T14:40:11;1.95;;;0.90;;
20056;SDS011;10189;49.546;7.906;2023-08-06T14:42:37;2.55;;;0.65;;
20056;SDS011;10189;49.546;7.906;2023-08-06T14:45:03;2.47;;;0.80;;
20056;SDS011;10189;49.546;7.906;2023-08-06T14:47:30;1.08;;;0.85;;
20056;SDS011;10189;49.546;7.906;2023-08-06T14:49:55;0.80;;;0.73;;
20056;SDS011;10189;49.546;7.906;2023-08-06T14:52:21;1.33;;;0.73;;
20056;SDS011;10189;49.546;7.906;2023-08-06T14:54:47;0.70;;;0.52;;